sensor_id;sensor_type;location;lat;lon;timestamp;pressure;altitude;pressure_sealevel;temperature
12007;BMP180;6062;47.294;12.182;2022-12-29T00:00:09;80145.00;;;3.70
12007;BMP180;6062;47.294;12.182;2022-12-29T00:02:35;80140.00;;;3.80
12007;BMP180;6062;47.294;12.182;2022-12-29T00:05:01;80139.00;;;3.80
12007;BMP180;6062;47.294;12.182;2022-12-29T00:07:27;80141.00;;;3.90
12007;BMP180;6062;47.294;12.182;2022-12-29T00:09:53;80144.00;;;3.90
12007;BMP180;6062;47.294;12.182;2022-12-29T00:12:18;80132.00;;;3.90
12007;BMP180;6062;47.294;12.182;2022-12-29T00:14:44;80130.00;;;4.00
12007;BMP180;6062;47.294;12.182;2022-12-29T00:17:28;80127.00;;;4.00
12007;BMP180;6062;47.294;12.182;2022-12-29T00:19:53;80131.00;;;4.00
12007;BMP180;6062;47.294;12.182;2022-12-29T00:22:37;80122.00;;;3.90
12007;BMP180;6062;47.294;12.182;2022-12-29T00:25:21;80124.00;;;3.90
12007;BMP180;6062;47.294;12.182;2022-12-29T00:28:08;80119.00;;;3.80
12007;BMP180;6062;47.294;12.182;2022-12-29T00:30:52;80115.00;;;3.80
12007;BMP180;6062;47.294;12.182;2022-12-29T00:33:41;80113.00;;;3.80
12007;BMP180;6062;47.294;12.182;2022-12-29T00:36:32;80111.00;;;3.80
12007;BMP180;6062;47.294;12.182;2022-12-29T00:39:13;80111.00;;;3.80
12007;BMP180;6062;47.294;12.182;2022-12-29T00:42:05;80106.00;;;3.70
12007;BMP180;6062;47.294;12.182;2022-12-29T00:45:04;80112.00;;;3.70
12007;BMP180;6062;47.294;12.182;2022-12-29T00:47:30;80119.00;;;3.70
12007;BMP180;6062;47.294;12.182;2022-12-29T00:49:55;80113.00;;;3.70
12007;BMP180;6062;47.294;12.182;2022-12-29T00:52:21;80115.00;;;3.70
12007;BMP180;6062;47.294;12.182;2022-12-29T00:54:47;80115.00;;;3.70
12007;BMP180;6062;47.294;12.182;2022-12-29T00:57:13;80112.00;;;3.60
12007;BMP180;6062;47.294;12.182;2022-12-29T00:59:41;80113.00;;;3.60
12007;BMP180;6062;47.294;12.182;2022-12-29T01:02:09;80120.00;;;3.60
12007;BMP180;6062;47.294;12.182;2022-12-29T01:04:35;80117.00;;;3.60
12007;BMP180;6062;47.294;12.182;2022-12-29T01:07:01;80120.00;;;3.60
12007;BMP180;6062;47.294;12.182;2022-12-29T01:09:26;80121.00;;;3.50
12007;BMP180;6062;47.294;12.182;2022-12-29T01:12:11;80127.00;;;3.50
12007;BMP180;6062;47.294;12.182;2022-12-29T01:14:37;80128.00;;;3.50
12007;BMP180;6062;47.294;12.182;2022-12-29T01:17:04;80121.00;;;3.40
12007;BMP180;6062;47.294;12.182;2022-12-29T01:19:30;80132.00;;;3.40
12007;BMP180;6062;47.294;12.182;2022-12-29T01:21:56;80129.00;;;3.40
12007;BMP180;6062;47.294;12.182;2022-12-29T01:24:22;80125.00;;;3.30
12007;BMP180;6062;47.294;12.182;2022-12-29T01:26:48;80138.00;;;3.30
12007;BMP180;6062;47.294;12.182;2022-12-29T01:29:14;80138.00;;;3.20
12007;BMP180;6062;47.294;12.182;2022-12-29T01:31:40;80135.00;;;3.10
12007;BMP180;6062;47.294;12.182;2022-12-29T01:34:06;80135.00;;;3.10
12007;BMP180;6062;47.294;12.182;2022-12-29T01:36:33;80132.00;;;3.00
12007;BMP180;6062;47.294;12.182;2022-12-29T01:38:59;80139.00;;;3.00
12007;BMP180;6062;47.294;12.182;2022-12-29T01:41:25;80135.00;;;2.90
12007;BMP180;6062;47.294;12.182;2022-12-29T01:43:55;80122.00;;;2.90
12007;BMP180;6062;47.294;12.182;2022-12-29T01:46:41;80123.00;;;2.80
12007;BMP180;6062;47.294;12.182;2022-12-29T01:49:18;80135.00;;;2.70
12007;BMP180;6062;47.294;12.182;2022-12-29T01:51:52;80131.00;;;2.70
12007;BMP180;6062;47.294;12.182;2022-12-29T01:54:47;80134.00;;;2.60
12007;BMP180;6062;47.294;12.182;2022-12-29T01:57:21;80129.00;;;2.60
12007;BMP180;6062;47.294;12.182;2022-12-29T02:00:10;80117.00;;;2.50
12007;BMP180;6062;47.294;12.182;2022-12-29T02:02:37;80123.00;;;2.50
12007;BMP180;6062;47.294;12.182;2022-12-29T02:05:18;80132.00;;;2.50
12007;BMP180;6062;47.294;12.182;2022-12-29T02:07:48;80139.00;;;2.40
12007;BMP180;6062;47.294;12.182;2022-12-29T02:10:14;80128.00;;;2.40
12007;BMP180;6062;47.294;12.182;2022-12-29T02:12:40;80129.00;;;2.40
12007;BMP180;6062;47.294;12.182;2022-12-29T02:15:07;80126.00;;;2.40
12007;BMP180;6062;47.294;12.182;2022-12-29T02:18:13;80112.00;;;2.30
12007;BMP180;6062;47.294;12.182;2022-12-29T02:26:56;80106.00;;;2.20
12007;BMP180;6062;47.294;12.182;2022-12-29T02:32:30;80099.00;;;2.20
12007;BMP180;6062;47.294;12.182;2022-12-29T02:35:15;80097.00;;;2.20
12007;BMP180;6062;47.294;12.182;2022-12-29T02:38:13;80100.00;;;2.20
12007;BMP180;6062;47.294;12.182;2022-12-29T02:41:13;80091.00;;;2.20
12007;BMP180;6062;47.294;12.182;2022-12-29T02:44:04;80096.00;;;2.20
12007;BMP180;6062;47.294;12.182;2022-12-29T02:49:58;80080.00;;;2.30
12007;BMP180;6062;47.294;12.182;2022-12-29T02:52:37;80101.00;;;2.30
12007;BMP180;6062;47.294;12.182;2022-12-29T02:55:05;80094.00;;;2.40
12007;BMP180;6062;47.294;12.182;2022-12-29T02:57:34;80100.00;;;2.40
12007;BMP180;6062;47.294;12.182;2022-12-29T03:00:10;80101.00;;;2.40
12007;BMP180;6062;47.294;12.182;2022-12-29T03:03:12;80103.00;;;2.40
12007;BMP180;6062;47.294;12.182;2022-12-29T03:08:33;80093.00;;;2.30
12007;BMP180;6062;47.294;12.182;2022-12-29T03:11:06;80081.00;;;2.30
12007;BMP180;6062;47.294;12.182;2022-12-29T03:14:08;80081.00;;;2.30
12007;BMP180;6062;47.294;12.182;2022-12-29T03:17:06;80087.00;;;2.20
12007;BMP180;6062;47.294;12.182;2022-12-29T03:19:41;80087.00;;;2.20
12007;BMP180;6062;47.294;12.182;2022-12-29T03:22:19;80095.00;;;2.20
12007;BMP180;6062;47.294;12.182;2022-12-29T03:24:58;80100.00;;;2.20
12007;BMP180;6062;47.294;12.182;2022-12-29T03:27:38;80094.00;;;2.20
12007;BMP180;6062;47.294;12.182;2022-12-29T03:30:06;80106.00;;;2.20
12007;BMP180;6062;47.294;12.182;2022-12-29T03:32:40;80111.00;;;2.10
12007;BMP180;6062;47.294;12.182;2022-12-29T03:35:10;80102.00;;;2.10
12007;BMP180;6062;47.294;12.182;2022-12-29T03:37:44;80099.00;;;2.10
12007;BMP180;6062;47.294;12.182;2022-12-29T03:40:11;80086.00;;;2.10
12007;BMP180;6062;47.294;12.182;2022-12-29T03:42:39;80087.00;;;2.00
12007;BMP180;6062;47.294;12.182;2022-12-29T03:45:07;80097.00;;;2.00
12007;BMP180;6062;47.294;12.182;2022-12-29T03:47:33;80093.00;;;2.00
12007;BMP180;6062;47.294;12.182;2022-12-29T03:49:59;80097.00;;;2.00
12007;BMP180;6062;47.294;12.182;2022-12-29T03:52:24;80099.00;;;2.00
12007;BMP180;6062;47.294;12.182;2022-12-29T03:54:50;80089.00;;;2.00
12007;BMP180;6062;47.294;12.182;2022-12-29T03:57:16;80106.00;;;2.10
12007;BMP180;6062;47.294;12.182;2022-12-29T03:59:41;80097.00;;;2.10
12007;BMP180;6062;47.294;12.182;2022-12-29T04:02:07;80101.00;;;2.10
12007;BMP180;6062;47.294;12.182;2022-12-29T04:04:33;80109.00;;;2.10
12007;BMP180;6062;47.294;12.182;2022-12-29T04:06:58;80112.00;;;2.10
12007;BMP180;6062;47.294;12.182;2022-12-29T04:09:24;80112.00;;;2.10
12007;BMP180;6062;47.294;12.182;2022-12-29T04:11:50;80115.00;;;2.20
12007;BMP180;6062;47.294;12.182;2022-12-29T04:14:15;80114.00;;;2.20
12007;BMP180;6062;47.294;12.182;2022-12-29T04:16:41;80128.00;;;2.20
12007;BMP180;6062;47.294;12.182;2022-12-29T04:19:07;80122.00;;;2.20
12007;BMP180;6062;47.294;12.182;2022-12-29T04:21:33;80125.00;;;2.20
12007;BMP180;6062;47.294;12.182;2022-12-29T04:23:59;80123.00;;;2.20
12007;BMP180;6062;47.294;12.182;2022-12-29T04:26:25;80118.00;;;2.20
12007;BMP180;6062;47.294;12.182;2022-12-29T04:28:51;80107.00;;;2.20
12007;BMP180;6062;47.294;12.182;2022-12-29T04:31:17;80114.00;;;2.20
12007;BMP180;6062;47.294;12.182;2022-12-29T04:33:42;80108.00;;;2.20
12007;BMP180;6062;47.294;12.182;2022-12-29T04:36:08;80108.00;;;2.20
12007;BMP180;6062;47.294;12.182;2022-12-29T04:38:34;80108.00;;;2.20
12007;BMP180;6062;47.294;12.182;2022-12-29T04:41:01;80113.00;;;2.20
12007;BMP180;6062;47.294;12.182;2022-12-29T04:43:28;80127.00;;;2.20
12007;BMP180;6062;47.294;12.182;2022-12-29T04:45:54;80113.00;;;2.30
12007;BMP180;6062;47.294;12.182;2022-12-29T04:48:20;80128.00;;;2.30
12007;BMP180;6062;47.294;12.182;2022-12-29T04:50:48;80109.00;;;2.30
12007;BMP180;6062;47.294;12.182;2022-12-29T04:53:16;80108.00;;;2.30
12007;BMP180;6062;47.294;12.182;2022-12-29T04:55:42;80107.00;;;2.30
12007;BMP180;6062;47.294;12.182;2022-12-29T04:58:08;80119.00;;;2.20
12007;BMP180;6062;47.294;12.182;2022-12-29T05:00:34;80109.00;;;2.20
12007;BMP180;6062;47.294;12.182;2022-12-29T05:02:59;80097.00;;;2.30
12007;BMP180;6062;47.294;12.182;2022-12-29T05:05:25;80113.00;;;2.30
12007;BMP180;6062;47.294;12.182;2022-12-29T05:07:51;80114.00;;;2.30
12007;BMP180;6062;47.294;12.182;2022-12-29T05:10:17;80112.00;;;2.30
12007;BMP180;6062;47.294;12.182;2022-12-29T05:12:43;80115.00;;;2.30
12007;BMP180;6062;47.294;12.182;2022-12-29T05:15:10;80114.00;;;2.30
12007;BMP180;6062;47.294;12.182;2022-12-29T05:17:36;80113.00;;;2.40
12007;BMP180;6062;47.294;12.182;2022-12-29T05:20:04;80119.00;;;2.40
12007;BMP180;6062;47.294;12.182;2022-12-29T05:22:30;80116.00;;;2.40
12007;BMP180;6062;47.294;12.182;2022-12-29T05:24:56;80112.00;;;2.40
12007;BMP180;6062;47.294;12.182;2022-12-29T05:27:22;80114.00;;;2.50
12007;BMP180;6062;47.294;12.182;2022-12-29T05:29:47;80104.00;;;2.50
12007;BMP180;6062;47.294;12.182;2022-12-29T05:32:13;80102.00;;;2.50
12007;BMP180;6062;47.294;12.182;2022-12-29T05:34:39;80106.00;;;2.60
12007;BMP180;6062;47.294;12.182;2022-12-29T05:37:04;80095.00;;;2.60
12007;BMP180;6062;47.294;12.182;2022-12-29T05:39:30;80098.00;;;2.60
12007;BMP180;6062;47.294;12.182;2022-12-29T05:41:56;80098.00;;;2.60
12007;BMP180;6062;47.294;12.182;2022-12-29T05:44:22;80106.00;;;2.60
12007;BMP180;6062;47.294;12.182;2022-12-29T05:46:47;80095.00;;;2.60
12007;BMP180;6062;47.294;12.182;2022-12-29T05:49:13;80095.00;;;2.60
12007;BMP180;6062;47.294;12.182;2022-12-29T05:51:39;80083.00;;;2.60
12007;BMP180;6062;47.294;12.182;2022-12-29T05:54:05;80095.00;;;2.60
12007;BMP180;6062;47.294;12.182;2022-12-29T05:56:30;80098.00;;;2.70
12007;BMP180;6062;47.294;12.182;2022-12-29T05:58:56;80078.00;;;2.70
12007;BMP180;6062;47.294;12.182;2022-12-29T06:01:22;80099.00;;;2.80
12007;BMP180;6062;47.294;12.182;2022-12-29T06:03:47;80097.00;;;2.80
12007;BMP180;6062;47.294;12.182;2022-12-29T06:06:13;80093.00;;;2.90
12007;BMP180;6062;47.294;12.182;2022-12-29T06:08:39;80103.00;;;3.00
12007;BMP180;6062;47.294;12.182;2022-12-29T06:11:05;80102.00;;;3.00
12007;BMP180;6062;47.294;12.182;2022-12-29T06:13:31;80109.00;;;3.10
12007;BMP180;6062;47.294;12.182;2022-12-29T06:15:57;80099.00;;;3.20
12007;BMP180;6062;47.294;12.182;2022-12-29T06:18:22;80098.00;;;3.30
12007;BMP180;6062;47.294;12.182;2022-12-29T06:20:48;80099.00;;;3.30
12007;BMP180;6062;47.294;12.182;2022-12-29T06:23:15;80101.00;;;3.40
12007;BMP180;6062;47.294;12.182;2022-12-29T06:25:41;80099.00;;;3.40
12007;BMP180;6062;47.294;12.182;2022-12-29T06:28:07;80112.00;;;3.50
12007;BMP180;6062;47.294;12.182;2022-12-29T06:30:33;80099.00;;;3.50
12007;BMP180;6062;47.294;12.182;2022-12-29T06:32:59;80108.00;;;3.50
12007;BMP180;6062;47.294;12.182;2022-12-29T06:35:25;80104.00;;;3.60
12007;BMP180;6062;47.294;12.182;2022-12-29T06:37:51;80110.00;;;3.60
12007;BMP180;6062;47.294;12.182;2022-12-29T06:40:17;80109.00;;;3.60
12007;BMP180;6062;47.294;12.182;2022-12-29T06:42:42;80100.00;;;3.60
12007;BMP180;6062;47.294;12.182;2022-12-29T06:45:09;80107.00;;;3.60
12007;BMP180;6062;47.294;12.182;2022-12-29T06:47:35;80102.00;;;3.60
12007;BMP180;6062;47.294;12.182;2022-12-29T06:50:02;80113.00;;;3.70
12007;BMP180;6062;47.294;12.182;2022-12-29T06:52:28;80111.00;;;3.70
12007;BMP180;6062;47.294;12.182;2022-12-29T06:54:55;80115.00;;;3.70
12007;BMP180;6062;47.294;12.182;2022-12-29T06:57:21;80114.00;;;3.70
12007;BMP180;6062;47.294;12.182;2022-12-29T06:59:47;80105.00;;;3.70
12007;BMP180;6062;47.294;12.182;2022-12-29T07:02:13;80108.00;;;3.70
12007;BMP180;6062;47.294;12.182;2022-12-29T07:04:40;80109.00;;;3.70
12007;BMP180;6062;47.294;12.182;2022-12-29T07:07:06;80116.00;;;3.60
12007;BMP180;6062;47.294;12.182;2022-12-29T07:09:31;80117.00;;;3.60
12007;BMP180;6062;47.294;12.182;2022-12-29T07:11:57;80124.00;;;3.50
12007;BMP180;6062;47.294;12.182;2022-12-29T07:14:23;80132.00;;;3.50
12007;BMP180;6062;47.294;12.182;2022-12-29T07:16:49;80133.00;;;3.50
12007;BMP180;6062;47.294;12.182;2022-12-29T07:19:14;80125.00;;;3.60
12007;BMP180;6062;47.294;12.182;2022-12-29T07:21:40;80121.00;;;3.60
12007;BMP180;6062;47.294;12.182;2022-12-29T07:24:07;80125.00;;;3.70
12007;BMP180;6062;47.294;12.182;2022-12-29T07:26:33;80119.00;;;3.80
12007;BMP180;6062;47.294;12.182;2022-12-29T07:29:00;80126.00;;;3.90
12007;BMP180;6062;47.294;12.182;2022-12-29T07:31:26;80130.00;;;4.00
12007;BMP180;6062;47.294;12.182;2022-12-29T07:33:52;80137.00;;;4.10
12007;BMP180;6062;47.294;12.182;2022-12-29T07:36:18;80139.00;;;4.20
12007;BMP180;6062;47.294;12.182;2022-12-29T07:38:43;80138.00;;;4.30
12007;BMP180;6062;47.294;12.182;2022-12-29T07:41:09;80133.00;;;4.30
12007;BMP180;6062;47.294;12.182;2022-12-29T07:43:35;80139.00;;;4.40
12007;BMP180;6062;47.294;12.182;2022-12-29T07:46:01;80137.00;;;4.50
12007;BMP180;6062;47.294;12.182;2022-12-29T07:48:26;80143.00;;;4.60
12007;BMP180;6062;47.294;12.182;2022-12-29T07:50:53;80131.00;;;4.70
12007;BMP180;6062;47.294;12.182;2022-12-29T07:53:19;80133.00;;;4.70
12007;BMP180;6062;47.294;12.182;2022-12-29T07:55:44;80136.00;;;4.80
12007;BMP180;6062;47.294;12.182;2022-12-29T07:58:10;80141.00;;;4.90
12007;BMP180;6062;47.294;12.182;2022-12-29T08:00:37;80142.00;;;5.00
12007;BMP180;6062;47.294;12.182;2022-12-29T08:03:03;80145.00;;;5.10
12007;BMP180;6062;47.294;12.182;2022-12-29T08:05:32;80140.00;;;5.20
12007;BMP180;6062;47.294;12.182;2022-12-29T08:07:58;80143.00;;;5.40
12007;BMP180;6062;47.294;12.182;2022-12-29T08:10:24;80138.00;;;5.80
12007;BMP180;6062;47.294;12.182;2022-12-29T08:12:50;80137.00;;;6.50
12007;BMP180;6062;47.294;12.182;2022-12-29T08:15:15;80145.00;;;7.60
12007;BMP180;6062;47.294;12.182;2022-12-29T08:17:41;80140.00;;;9.00
12007;BMP180;6062;47.294;12.182;2022-12-29T08:20:08;80156.00;;;10.60
12007;BMP180;6062;47.294;12.182;2022-12-29T08:22:34;80157.00;;;12.20
12007;BMP180;6062;47.294;12.182;2022-12-29T08:24:59;80157.00;;;13.80
12007;BMP180;6062;47.294;12.182;2022-12-29T08:27:26;80166.00;;;15.30
12007;BMP180;6062;47.294;12.182;2022-12-29T08:29:51;80164.00;;;16.30
12007;BMP180;6062;47.294;12.182;2022-12-29T08:32:17;80166.00;;;16.90
12007;BMP180;6062;47.294;12.182;2022-12-29T08:34:43;80167.00;;;17.00
12007;BMP180;6062;47.294;12.182;2022-12-29T08:37:09;80157.00;;;16.60
12007;BMP180;6062;47.294;12.182;2022-12-29T08:39:35;80164.00;;;16.10
12007;BMP180;6062;47.294;12.182;2022-12-29T08:42:01;80157.00;;;15.40
12007;BMP180;6062;47.294;12.182;2022-12-29T08:44:26;80161.00;;;14.80
12007;BMP180;6062;47.294;12.182;2022-12-29T08:46:52;80151.00;;;14.10
12007;BMP180;6062;47.294;12.182;2022-12-29T08:49:18;80164.00;;;13.60
12007;BMP180;6062;47.294;12.182;2022-12-29T08:51:43;80165.00;;;13.10
12007;BMP180;6062;47.294;12.182;2022-12-29T08:54:09;80150.00;;;12.80
12007;BMP180;6062;47.294;12.182;2022-12-29T08:56:35;80154.00;;;12.90
12007;BMP180;6062;47.294;12.182;2022-12-29T08:59:01;80160.00;;;13.30
12007;BMP180;6062;47.294;12.182;2022-12-29T09:01:26;80159.00;;;14.10
12007;BMP180;6062;47.294;12.182;2022-12-29T09:03:54;80165.00;;;15.00
12007;BMP180;6062;47.294;12.182;2022-12-29T09:06:20;80168.00;;;15.70
12007;BMP180;6062;47.294;12.182;2022-12-29T09:08:46;80168.00;;;16.20
12007;BMP180;6062;47.294;12.182;2022-12-29T09:11:19;80173.00;;;16.60
12007;BMP180;6062;47.294;12.182;2022-12-29T09:13:46;80170.00;;;17.00
12007;BMP180;6062;47.294;12.182;2022-12-29T09:16:12;80170.00;;;17.40
12007;BMP180;6062;47.294;12.182;2022-12-29T09:18:39;80172.00;;;18.00
12007;BMP180;6062;47.294;12.182;2022-12-29T09:21:07;80171.00;;;18.80
12007;BMP180;6062;47.294;12.182;2022-12-29T09:23:34;80174.00;;;19.50
12007;BMP180;6062;47.294;12.182;2022-12-29T09:26:00;80178.00;;;20.40
12007;BMP180;6062;47.294;12.182;2022-12-29T09:28:26;80179.00;;;21.30
12007;BMP180;6062;47.294;12.182;2022-12-29T09:30:54;80175.00;;;22.10
12007;BMP180;6062;47.294;12.182;2022-12-29T09:33:20;80179.00;;;23.00
12007;BMP180;6062;47.294;12.182;2022-12-29T09:35:53;80177.00;;;23.80
12007;BMP180;6062;47.294;12.182;2022-12-29T09:38:20;80182.00;;;24.60
12007;BMP180;6062;47.294;12.182;2022-12-29T09:40:56;80186.00;;;25.20
12007;BMP180;6062;47.294;12.182;2022-12-29T09:44:12;80175.00;;;25.90
12007;BMP180;6062;47.294;12.182;2022-12-29T09:46:41;80177.00;;;26.50
12007;BMP180;6062;47.294;12.182;2022-12-29T09:49:25;80176.00;;;27.00
12007;BMP180;6062;47.294;12.182;2022-12-29T09:51:59;80174.00;;;27.30
12007;BMP180;6062;47.294;12.182;2022-12-29T09:54:50;80171.00;;;27.50
12007;BMP180;6062;47.294;12.182;2022-12-29T10:00:32;80160.00;;;27.60
12007;BMP180;6062;47.294;12.182;2022-12-29T10:03:19;80161.00;;;27.80
12007;BMP180;6062;47.294;12.182;2022-12-29T10:20:53;80165.00;;;23.50
12007;BMP180;6062;47.294;12.182;2022-12-29T10:25:58;80154.00;;;21.70
12007;BMP180;6062;47.294;12.182;2022-12-29T10:31:23;80160.00;;;20.00
12007;BMP180;6062;47.294;12.182;2022-12-29T10:33:59;80153.00;;;19.30
12007;BMP180;6062;47.294;12.182;2022-12-29T10:36:43;80155.00;;;18.60
12007;BMP180;6062;47.294;12.182;2022-12-29T10:39:49;80160.00;;;17.90
12007;BMP180;6062;47.294;12.182;2022-12-29T10:42:34;80152.00;;;17.40
12007;BMP180;6062;47.294;12.182;2022-12-29T10:45:03;80151.00;;;17.00
12007;BMP180;6062;47.294;12.182;2022-12-29T10:47:35;80149.00;;;16.70
12007;BMP180;6062;47.294;12.182;2022-12-29T10:50:05;80144.00;;;16.40
12007;BMP180;6062;47.294;12.182;2022-12-29T10:52:34;80141.00;;;16.20
12007;BMP180;6062;47.294;12.182;2022-12-29T10:55:07;80148.00;;;16.00
12007;BMP180;6062;47.294;12.182;2022-12-29T10:57:43;80150.00;;;15.90
12007;BMP180;6062;47.294;12.182;2022-12-29T11:00:18;80146.00;;;15.80
12007;BMP180;6062;47.294;12.182;2022-12-29T11:05:23;80145.00;;;15.60
12007;BMP180;6062;47.294;12.182;2022-12-29T11:08:03;80147.00;;;15.50
12007;BMP180;6062;47.294;12.182;2022-12-29T11:13:12;80147.00;;;15.40
12007;BMP180;6062;47.294;12.182;2022-12-29T11:15:42;80151.00;;;15.30
12007;BMP180;6062;47.294;12.182;2022-12-29T11:18:33;80152.00;;;15.20
12007;BMP180;6062;47.294;12.182;2022-12-29T11:21:04;80150.00;;;15.10
12007;BMP180;6062;47.294;12.182;2022-12-29T11:23:41;80154.00;;;15.10
12007;BMP180;6062;47.294;12.182;2022-12-29T11:26:15;80142.00;;;15.20
12007;BMP180;6062;47.294;12.182;2022-12-29T11:28:45;80156.00;;;15.40
12007;BMP180;6062;47.294;12.182;2022-12-29T11:31:17;80149.00;;;15.80
12007;BMP180;6062;47.294;12.182;2022-12-29T11:33:43;80152.00;;;16.10
12007;BMP180;6062;47.294;12.182;2022-12-29T11:36:20;80151.00;;;16.40
12007;BMP180;6062;47.294;12.182;2022-12-29T11:38:52;80150.00;;;16.70
12007;BMP180;6062;47.294;12.182;2022-12-29T11:41:31;80152.00;;;16.90
12007;BMP180;6062;47.294;12.182;2022-12-29T11:44:02;80159.00;;;16.90
12007;BMP180;6062;47.294;12.182;2022-12-29T11:46:36;80155.00;;;17.00
12007;BMP180;6062;47.294;12.182;2022-12-29T11:49:03;80146.00;;;17.20
12007;BMP180;6062;47.294;12.182;2022-12-29T11:51:46;80139.00;;;17.60
12007;BMP180;6062;47.294;12.182;2022-12-29T11:54:32;80143.00;;;18.10
12007;BMP180;6062;47.294;12.182;2022-12-29T11:57:15;80136.00;;;18.70
12007;BMP180;6062;47.294;12.182;2022-12-29T11:59:53;80144.00;;;19.20
12007;BMP180;6062;47.294;12.182;2022-12-29T12:02:38;80131.00;;;19.60
12007;BMP180;6062;47.294;12.182;2022-12-29T12:05:22;80142.00;;;19.80
12007;BMP180;6062;47.294;12.182;2022-12-29T12:10:38;80135.00;;;19.70
12007;BMP180;6062;47.294;12.182;2022-12-29T12:16:46;80126.00;;;19.40
12007;BMP180;6062;47.294;12.182;2022-12-29T12:19:53;80117.00;;;19.30
12007;BMP180;6062;47.294;12.182;2022-12-29T12:22:36;80112.00;;;19.30
12007;BMP180;6062;47.294;12.182;2022-12-29T12:25:19;80122.00;;;19.20
12007;BMP180;6062;47.294;12.182;2022-12-29T12:27:59;80118.00;;;19.10
12007;BMP180;6062;47.294;12.182;2022-12-29T12:30:36;80120.00;;;18.90
12007;BMP180;6062;47.294;12.182;2022-12-29T12:33:31;80118.00;;;18.70
12007;BMP180;6062;47.294;12.182;2022-12-29T12:42:21;80114.00;;;18.20
12007;BMP180;6062;47.294;12.182;2022-12-29T12:56:16;80118.00;;;16.20
12007;BMP180;6062;47.294;12.182;2022-12-29T12:58:55;80120.00;;;15.70
12007;BMP180;6062;47.294;12.182;2022-12-29T13:04:40;80111.00;;;14.60
12007;BMP180;6062;47.294;12.182;2022-12-29T13:16:02;80101.00;;;12.70
12007;BMP180;6062;47.294;12.182;2022-12-29T13:21:20;80095.00;;;12.20
12007;BMP180;6062;47.294;12.182;2022-12-29T13:24:28;80099.00;;;11.90
12007;BMP180;6062;47.294;12.182;2022-12-29T13:30:17;80102.00;;;11.30
12007;BMP180;6062;47.294;12.182;2022-12-29T13:38:34;80101.00;;;10.70
12007;BMP180;6062;47.294;12.182;2022-12-29T13:41:29;80095.00;;;10.50
12007;BMP180;6062;47.294;12.182;2022-12-29T13:43:58;80096.00;;;10.40
12007;BMP180;6062;47.294;12.182;2022-12-29T13:46:33;80096.00;;;10.20
12007;BMP180;6062;47.294;12.182;2022-12-29T13:49:11;80095.00;;;10.10
12007;BMP180;6062;47.294;12.182;2022-12-29T13:51:49;80098.00;;;10.00
12007;BMP180;6062;47.294;12.182;2022-12-29T13:54:39;80097.00;;;9.90
12007;BMP180;6062;47.294;12.182;2022-12-29T14:00:23;80089.00;;;9.70
12007;BMP180;6062;47.294;12.182;2022-12-29T14:03:37;80099.00;;;9.60
12007;BMP180;6062;47.294;12.182;2022-12-29T14:06:34;80103.00;;;9.50
12007;BMP180;6062;47.294;12.182;2022-12-29T14:09:30;80092.00;;;9.40
12007;BMP180;6062;47.294;12.182;2022-12-29T14:11:53;80105.00;;;9.20
12007;BMP180;6062;47.294;12.182;2022-12-29T14:14:31;80101.00;;;9.00
12007;BMP180;6062;47.294;12.182;2022-12-29T14:17:11;80102.00;;;8.90
12007;BMP180;6062;47.294;12.182;2022-12-29T14:19:44;80106.00;;;8.60
12007;BMP180;6062;47.294;12.182;2022-12-29T14:22:11;80105.00;;;8.60
12007;BMP180;6062;47.294;12.182;2022-12-29T14:24:44;80105.00;;;8.50
12007;BMP180;6062;47.294;12.182;2022-12-29T14:34:51;80098.00;;;8.00
12007;BMP180;6062;47.294;12.182;2022-12-29T14:37:28;80113.00;;;7.90
12007;BMP180;6062;47.294;12.182;2022-12-29T14:40:17;80115.00;;;7.80
12007;BMP180;6062;47.294;12.182;2022-12-29T14:42:46;80099.00;;;7.80
12007;BMP180;6062;47.294;12.182;2022-12-29T14:47:44;80107.00;;;7.60
12007;BMP180;6062;47.294;12.182;2022-12-29T14:50:43;80104.00;;;7.50
12007;BMP180;6062;47.294;12.182;2022-12-29T14:53:48;80104.00;;;7.40
12007;BMP180;6062;47.294;12.182;2022-12-29T14:56:17;80100.00;;;7.40
12007;BMP180;6062;47.294;12.182;2022-12-29T14:58:50;80096.00;;;7.40
12007;BMP180;6062;47.294;12.182;2022-12-29T15:04:26;80080.00;;;7.30
12007;BMP180;6062;47.294;12.182;2022-12-29T15:06:53;80082.00;;;7.20
12007;BMP180;6062;47.294;12.182;2022-12-29T15:09:36;80078.00;;;7.20
12007;BMP180;6062;47.294;12.182;2022-12-29T15:12:33;80079.00;;;7.10
12007;BMP180;6062;47.294;12.182;2022-12-29T15:15:00;80083.00;;;7.10
12007;BMP180;6062;47.294;12.182;2022-12-29T15:17:30;80073.00;;;7.00
12007;BMP180;6062;47.294;12.182;2022-12-29T15:19:59;80090.00;;;6.90
12007;BMP180;6062;47.294;12.182;2022-12-29T15:22:26;80073.00;;;6.90
12007;BMP180;6062;47.294;12.182;2022-12-29T15:24:54;80100.00;;;6.80
12007;BMP180;6062;47.294;12.182;2022-12-29T15:27:25;80095.00;;;6.80
12007;BMP180;6062;47.294;12.182;2022-12-29T15:30:02;80091.00;;;6.70
12007;BMP180;6062;47.294;12.182;2022-12-29T15:32:40;80083.00;;;6.60
12007;BMP180;6062;47.294;12.182;2022-12-29T15:35:32;80074.00;;;6.50
12007;BMP180;6062;47.294;12.182;2022-12-29T15:37:59;80069.00;;;6.50
12007;BMP180;6062;47.294;12.182;2022-12-29T15:40:32;80079.00;;;6.40
12007;BMP180;6062;47.294;12.182;2022-12-29T15:45:51;80079.00;;;6.30
12007;BMP180;6062;47.294;12.182;2022-12-29T15:48:24;80073.00;;;6.30
12007;BMP180;6062;47.294;12.182;2022-12-29T15:50:51;80063.00;;;6.30
12007;BMP180;6062;47.294;12.182;2022-12-29T15:53:29;80061.00;;;6.20
12007;BMP180;6062;47.294;12.182;2022-12-29T15:56:00;80057.00;;;6.20
12007;BMP180;6062;47.294;12.182;2022-12-29T15:58:30;80055.00;;;6.20
12007;BMP180;6062;47.294;12.182;2022-12-29T16:00:59;80055.00;;;6.20
12007;BMP180;6062;47.294;12.182;2022-12-29T16:03:30;80053.00;;;6.10
12007;BMP180;6062;47.294;12.182;2022-12-29T16:06:10;80051.00;;;6.10
12007;BMP180;6062;47.294;12.182;2022-12-29T16:08:57;80058.00;;;6.10
12007;BMP180;6062;47.294;12.182;2022-12-29T16:11:40;80055.00;;;6.10
12007;BMP180;6062;47.294;12.182;2022-12-29T16:14:14;80060.00;;;6.10
12007;BMP180;6062;47.294;12.182;2022-12-29T16:16:43;80064.00;;;6.00
12007;BMP180;6062;47.294;12.182;2022-12-29T16:19:35;80067.00;;;6.00
12007;BMP180;6062;47.294;12.182;2022-12-29T16:22:09;80068.00;;;6.00
12007;BMP180;6062;47.294;12.182;2022-12-29T16:24:39;80065.00;;;6.00
12007;BMP180;6062;47.294;12.182;2022-12-29T16:27:21;80070.00;;;6.00
12007;BMP180;6062;47.294;12.182;2022-12-29T16:29:54;80051.00;;;6.00
12007;BMP180;6062;47.294;12.182;2022-12-29T16:32:30;80063.00;;;5.90
12007;BMP180;6062;47.294;12.182;2022-12-29T16:35:21;80072.00;;;5.90
12007;BMP180;6062;47.294;12.182;2022-12-29T16:38:16;80070.00;;;5.70